Time;durP1;ratioP1;P1;durP2;ratioP2;P2;SDS_P1;SDS_P2;PMS_P1;PMS_P2;Temp;Humidity;BMP_temperature;BMP_pressure;BME280_temperature;BME280_humidity;BME280_pressure;Samples;Min_cycle;Max_cycle;Signal;HPM_P1;HPM_P2
2023/08/17 00:01:52;;;;;;;12.60;6.03;;;;;;;;;;10529112;28;20044;-82
2023/08/17 00:07:05;;;;;;;10.27;6.22;;;;;;;;;;10518959;28;20048;-83
2023/08/17 00:12:13;;;;;;;9.05;5.93;;;;;;;;;;10545503;28;20046;-83
2023/08/17 00:17:37;;;;;;;12.18;6.22;;;;;;;;;;10537020;28;20455;-83
2023/08/17 00:22:48;;;;;;;10.75;5.80;;;;;;;;;;10537840;28;20040;-82
2023/08/17 00:27:54;;;;;;;9.98;5.90;;;;;;;;;;10536259;28;20501;-81
2023/08/17 00:33:27;;;;;;;10.05;5.65;;;;;;;;;;10534236;28;20487;-82
2023/08/17 00:38:34;;;;;;;12.48;5.80;;;;;;;;;;10543628;28;20056;-82
2023/08/17 00:49:23;;;;;;;9.70;5.75;;;;;;;;;;10528150;28;20054;-84
2023/08/17 00:54:31;;;;;;;15.25;5.95;;;;;;;;;;10528660;28;20446;-84
2023/08/17 00:59:40;;;;;;;12.52;6.38;;;;;;;;;;10530351;28;20058;-84
2023/08/17 01:04:58;;;;;;;9.47;5.73;;;;;;;;;;10522951;28;20101;-82
2023/08/17 01:10:03;;;;;;;9.57;5.57;;;;;;;;;;10528015;28;20425;-83
2023/08/17 01:15:23;;;;;;;14.35;5.70;;;;;;;;;;10529689;28;20443;-84
2023/08/17 01:20:28;;;;;;;12.48;6.30;;;;;;;;;;10531886;28;20117;-83
2023/08/17 01:25:46;;;;;;;9.38;6.25;;;;;;;;;;10553825;28;20046;-83
2023/08/17 01:31:05;;;;;;;8.93;5.88;;;;;;;;;;10559829;28;20043;-83
2023/08/17 01:36:13;;;;;;;14.32;5.72;;;;;;;;;;10556157;28;20507;-80
2023/08/17 01:41:25;;;;;;;10.20;5.63;;;;;;;;;;10562435;28;20041;-82
2023/08/17 01:52:00;;;;;;;12.57;6.43;;;;;;;;;;10579120;28;20147;-83
2023/08/17 01:57:17;;;;;;;10.40;5.70;;;;;;;;;;10580230;28;20444;-82
2023/08/17 02:02:28;;;;;;;10.18;5.88;;;;;;;;;;10577525;28;20051;-83
2023/08/17 02:07:36;;;;;;;11.43;5.78;;;;;;;;;;10574568;28;20028;-84
2023/08/17 02:13:01;;;;;;;10.60;6.47;;;;;;;;;;10568594;28;20032;-84
2023/08/17 02:18:25;;;;;;;10.80;5.75;;;;;;;;;;10550365;28;20042;-83
2023/08/17 02:23:32;;;;;;;13.63;7.25;;;;;;;;;;10589879;28;20186;-83
2023/08/17 02:28:43;;;;;;;14.23;6.30;;;;;;;;;;10577988;28;20186;-83
2023/08/17 02:33:49;;;;;;;10.65;5.80;;;;;;;;;;10531232;28;20100;-82
2023/08/17 02:38:57;;;;;;;12.70;6.30;;;;;;;;;;10531358;28;20036;-83
2023/08/17 02:44:13;;;;;;;11.15;6.50;;;;;;;;;;10520263;28;20484;-83
2023/08/17 02:49:27;;;;;;;11.88;5.93;;;;;;;;;;10527285;28;20118;-83
2023/08/17 02:54:35;;;;;;;9.88;6.07;;;;;;;;;;10533783;28;20075;-81
2023/08/17 02:59:47;;;;;;;12.13;6.68;;;;;;;;;;10542742;28;20048;-83
2023/08/17 03:05:04;;;;;;;12.50;6.50;;;;;;;;;;10534932;28;20036;-83
2023/08/17 03:10:15;;;;;;;11.55;6.38;;;;;;;;;;10546565;27;20043;-83
2023/08/17 03:15:24;;;;;;;13.05;7.45;;;;;;;;;;10538011;28;20138;-85
2023/08/17 03:20:30;;;;;;;10.00;6.65;;;;;;;;;;10511778;28;20443;-83
2023/08/17 03:31:06;;;;;;;13.32;7.18;;;;;;;;;;10528340;28;20463;-84
2023/08/17 03:36:11;;;;;;;14.07;6.82;;;;;;;;;;10530265;28;20151;-83
2023/08/17 03:41:25;;;;;;;13.00;7.03;;;;;;;;;;10543890;28;20126;-81
2023/08/17 03:46:41;;;;;;;14.50;7.05;;;;;;;;;;10551456;27;20120;-82
2023/08/17 03:51:46;;;;;;;10.65;6.70;;;;;;;;;;10519116;28;20058;-82
2023/08/17 03:56:51;;;;;;;11.50;7.25;;;;;;;;;;10537796;28;20209;-83
2023/08/17 04:02:09;;;;;;;12.50;6.82;;;;;;;;;;10516669;28;20062;-82
2023/08/17 04:07:53;;;;;;;11.98;6.43;;;;;;;;;;10533680;28;20432;-83
2023/08/17 04:13:02;;;;;;;13.43;6.13;;;;;;;;;;10535691;28;20054;-81
2023/08/17 04:18:12;;;;;;;12.63;6.78;;;;;;;;;;10550966;28;20143;-81
2023/08/17 04:23:31;;;;;;;11.60;7.30;;;;;;;;;;10539177;28;20036;-82
2023/08/17 04:28:34;;;;;;;12.32;6.72;;;;;;;;;;10551327;28;20036;-83
2023/08/17 04:33:49;;;;;;;10.90;6.43;;;;;;;;;;10545618;28;20059;-84
2023/08/17 04:39:00;;;;;;;12.95;7.05;;;;;;;;;;10542379;28;20047;-83
2023/08/17 04:44:09;;;;;;;13.25;6.97;;;;;;;;;;10521184;28;20048;-83
2023/08/17 04:49:45;;;;;;;14.65;7.90;;;;;;;;;;10550140;28;20048;-83
2023/08/17 04:54:52;;;;;;;15.23;7.88;;;;;;;;;;10546476;28;20061;-84
2023/08/17 04:59:57;;;;;;;19.20;8.40;;;;;;;;;;10525713;28;20044;-83
2023/08/17 05:05:12;;;;;;;14.02;7.57;;;;;;;;;;10554401;28;20043;-83
2023/08/17 05:10:18;;;;;;;15.80;8.00;;;;;;;;;;10542830;28;20097;-84
2023/08/17 05:15:26;;;;;;;15.45;8.32;;;;;;;;;;10566550;28;20067;-82
2023/08/17 05:20:41;;;;;;;;;;;;;;;;;;10560775;28;20040;-82
2023/08/17 05:25:53;;;;;;;17.08;7.88;;;;;;;;;;10580670;28;19918;-83
2023/08/17 05:31:04;;;;;;;11.57;7.70;;;;;;;;;;10558835;28;20150;-83
2023/08/17 05:36:17;;;;;;;17.30;7.90;;;;;;;;;;10587307;28;20043;-82
2023/08/17 05:41:30;;;;;;;13.75;7.88;;;;;;;;;;10579618;28;20107;-82
2023/08/17 05:46:39;;;;;;;12.20;7.43;;;;;;;;;;10578844;28;20028;-80
2023/08/17 05:51:46;;;;;;;11.73;6.43;;;;;;;;;;10564194;28;20089;-80
2023/08/17 05:57:10;;;;;;;11.77;6.75;;;;;;;;;;10580633;28;20040;-82
2023/08/17 06:02:25;;;;;;;13.23;6.78;;;;;;;;;;10569953;28;20115;-82
2023/08/17 06:07:36;;;;;;;12.55;7.10;;;;;;;;;;10567615;28;20044;-83
2023/08/17 06:12:43;;;;;;;11.88;6.80;;;;;;;;;;10576906;28;20070;-84
2023/08/17 06:17:56;;;;;;;14.80;6.45;;;;;;;;;;10588523;28;20036;-86
2023/08/17 06:23:22;;;;;;;13.30;6.82;;;;;;;;;;10575380;28;20071;-83
2023/08/17 06:28:31;;;;;;;10.32;6.53;;;;;;;;;;10563484;28;20115;-84
2023/08/17 06:33:36;;;;;;;8.77;5.75;;;;;;;;;;10539379;28;20303;-83
2023/08/17 06:38:49;;;;;;;10.07;5.97;;;;;;;;;;10540388;28;20051;-83
2023/08/17 06:43:54;;;;;;;9.85;6.03;;;;;;;;;;10528395;28;20052;-83
2023/08/17 06:49:00;;;;;;;10.70;6.07;;;;;;;;;;10514777;28;20044;-84
2023/08/17 06:54:09;;;;;;;8.48;6.10;;;;;;;;;;10524094;28;20499;-83
2023/08/17 06:59:16;;;;;;;12.32;6.40;;;;;;;;;;10522406;28;20074;-84
2023/08/17 07:09:56;;;;;;;9.95;5.97;;;;;;;;;;10518393;27;20443;-84
2023/08/17 07:14:59;;;;;;;10.63;5.70;;;;;;;;;;10550729;28;20028;-85
2023/08/17 07:20:02;;;;;;;;;;;;;;;;;;10553951;28;20069;-83
2023/08/17 07:25:09;;;;;;;8.73;5.30;;;;;;;;;;10563592;28;20001;-83
2023/08/17 07:30:13;;;;;;;9.88;5.35;;;;;;;;;;10537415;28;20051;-82
2023/08/17 07:35:22;;;;;;;8.98;5.68;;;;;;;;;;10521358;28;20377;-84
2023/08/17 07:40:47;;;;;;;11.27;6.28;;;;;;;;;;10518597;28;20135;-82
2023/08/17 07:45:54;;;;;;;8.20;6.25;;;;;;;;;;10515275;28;20448;-81
2023/08/17 07:51:02;;;;;;;9.93;5.88;;;;;;;;;;10504922;28;20048;-76
2023/08/17 07:56:13;;;;;;;7.68;5.50;;;;;;;;;;10510370;28;20123;-76
2023/08/17 08:01:18;;;;;;;7.63;5.35;;;;;;;;;;10504852;28;20040;-75
2023/08/17 08:06:27;;;;;;;8.32;5.60;;;;;;;;;;10504959;28;20040;-75
2023/08/17 08:11:36;;;;;;;6.32;5.68;;;;;;;;;;10508350;28;20629;-76
2023/08/17 08:16:41;;;;;;;7.82;5.60;;;;;;;;;;10527048;28;20121;-75
2023/08/17 08:21:47;;;;;;;9.75;5.60;;;;;;;;;;10525506;28;20064;-76
2023/08/17 08:26:57;;;;;;;7.55;5.88;;;;;;;;;;10514039;28;20086;-76
2023/08/17 08:32:03;;;;;;;6.85;5.60;;;;;;;;;;10497595;28;20131;-76
2023/08/17 08:37:14;;;;;;;7.13;5.23;;;;;;;;;;10505234;28;20417;-75
2023/08/17 08:42:25;;;;;;;6.75;6.10;;;;;;;;;;10496928;28;20044;-76
2023/08/17 08:47:33;;;;;;;7.57;6.57;;;;;;;;;;10495062;28;20055;-75
2023/08/17 08:52:45;;;;;;;8.73;5.93;;;;;;;;;;10514674;28;20513;-76
2023/08/17 08:57:59;;;;;;;6.55;5.82;;;;;;;;;;10515278;28;20123;-75
2023/08/17 09:03:03;;;;;;;6.88;5.30;;;;;;;;;;10515862;28;20059;-76
2023/08/17 09:08:29;;;;;;;7.00;5.45;;;;;;;;;;10512426;28;20037;-76
2023/08/17 09:14:02;;;;;;;7.10;5.63;;;;;;;;;;10503786;28;20573;-76
2023/08/17 09:19:15;;;;;;;6.47;5.38;;;;;;;;;;10517568;28;20517;-76
2023/08/17 09:24:18;;;;;;;6.80;6.20;;;;;;;;;;10501470;28;20183;-76
2023/08/17 09:29:36;;;;;;;6.22;5.63;;;;;;;;;;10507043;28;20763;-76
2023/08/17 09:34:53;;;;;;;7.60;5.47;;;;;;;;;;10525716;28;20071;-75
2023/08/17 09:40:18;;;;;;;10.02;6.18;;;;;;;;;;10510843;28;20048;-75
2023/08/17 09:45:39;;;;;;;6.95;6.30;;;;;;;;;;10498112;28;20102;-76
2023/08/17 09:50:52;;;;;;;5.43;4.90;;;;;;;;;;10519047;28;20509;-79
2023/08/17 09:56:03;;;;;;;9.25;6.10;;;;;;;;;;10515743;28;20136;-76
2023/08/17 10:01:13;;;;;;;6.40;5.80;;;;;;;;;;10492758;28;20051;-75
2023/08/17 10:06:23;;;;;;;6.32;5.57;;;;;;;;;;10495760;28;20044;-75
2023/08/17 10:11:36;;;;;;;6.88;5.30;;;;;;;;;;10519050;28;20074;-75
2023/08/17 10:16:50;;;;;;;7.35;5.93;;;;;;;;;;10511115;28;20039;-75
2023/08/17 10:22:04;;;;;;;6.65;5.90;;;;;;;;;;10520170;28;20148;-76
2023/08/17 10:27:10;;;;;;;6.05;5.55;;;;;;;;;;10481732;28;20044;-75
2023/08/17 10:32:21;;;;;;;7.82;5.55;;;;;;;;;;10516634;28;20036;-74
2023/08/17 10:37:46;;;;;;;7.60;6.00;;;;;;;;;;10509663;28;20490;-76
2023/08/17 10:43:16;;;;;;;5.88;5.38;;;;;;;;;;10513441;28;20051;-75
2023/08/17 10:54:02;;;;;;;6.57;4.72;;;;;;;;;;10499979;28;20043;-74
2023/08/17 10:59:33;;;;;;;8.90;5.22;;;;;;;;;;10489063;28;20055;-75
2023/08/17 11:04:54;;;;;;;7.65;5.13;;;;;;;;;;10513434;28;20130;-75
2023/08/17 11:10:01;;;;;;;6.50;5.05;;;;;;;;;;10512207;28;20052;-75
2023/08/17 11:15:09;;;;;;;7.65;5.40;;;;;;;;;;10510979;28;20062;-74
2023/08/17 11:20:16;;;;;;;6.35;5.65;;;;;;;;;;10512897;28;20040;-75
2023/08/17 11:25:20;;;;;;;6.03;5.28;;;;;;;;;;10509917;28;20047;-75
2023/08/17 11:30:50;;;;;;;6.18;4.72;;;;;;;;;;10512045;28;20040;-74
2023/08/17 11:35:55;;;;;;;5.40;4.90;;;;;;;;;;10509933;28;20052;-77
2023/08/17 11:41:08;;;;;;;6.07;5.47;;;;;;;;;;10483888;28;20038;-77
2023/08/17 11:46:27;;;;;;;6.30;5.32;;;;;;;;;;10506836;28;20148;-76
2023/08/17 11:51:47;;;;;;;5.95;5.45;;;;;;;;;;10501063;28;20099;-75
2023/08/17 11:56:57;;;;;;;5.30;4.80;;;;;;;;;;10517550;28;20054;-75
2023/08/17 12:02:02;;;;;;;6.20;5.60;;;;;;;;;;10515132;28;20044;-76
2023/08/17 12:07:10;;;;;;;7.15;5.70;;;;;;;;;;10497115;28;20076;-75
2023/08/17 12:12:21;;;;;;;5.60;5.10;;;;;;;;;;10520532;28;20068;-74
2023/08/17 12:17:38;;;;;;;5.85;5.25;;;;;;;;;;10515868;28;20444;-75
2023/08/17 12:22:43;;;;;;;5.43;4.93;;;;;;;;;;10507895;28;20043;-75
2023/08/17 12:27:51;;;;;;;7.22;6.00;;;;;;;;;;10508415;28;20063;-77
2023/08/17 12:32:57;;;;;;;6.28;4.88;;;;;;;;;;10512632;28;20063;-75
2023/08/17 12:38:05;;;;;;;;;;;;;;;;;;10522840;28;20091;-77
2023/08/17 12:43:14;;;;;;;6.00;5.13;;;;;;;;;;10517437;28;20448;-76
2023/08/17 12:48:27;;;;;;;5.90;5.30;;;;;;;;;;10517362;28;20432;-75
2023/08/17 12:53:40;;;;;;;6.38;5.40;;;;;;;;;;10499887;28;20486;-75
2023/08/17 12:59:02;;;;;;;11.63;5.60;;;;;;;;;;10516748;28;20113;-74
2023/08/17 13:04:10;;;;;;;6.10;4.75;;;;;;;;;;10523493;28;20460;-76
2023/08/17 13:14:38;;;;;;;6.68;4.60;;;;;;;;;;10508360;28;20040;-76
2023/08/17 13:19:52;;;;;;;7.90;4.88;;;;;;;;;;10519346;28;20119;-75
2023/08/17 13:24:57;;;;;;;5.43;4.85;;;;;;;;;;10491778;28;20047;-76
2023/08/17 13:30:01;;;;;;;8.75;4.68;;;;;;;;;;10479703;28;20355;-75
2023/08/17 13:35:12;;;;;;;7.30;4.10;;;;;;;;;;10492808;28;20048;-77
2023/08/17 13:40:19;;;;;;;6.10;4.80;;;;;;;;;;10511219;28;20040;-76
2023/08/17 13:45:24;;;;;;;7.13;5.00;;;;;;;;;;10503357;28;20098;-76
2023/08/17 13:50:34;;;;;;;6.70;4.65;;;;;;;;;;10497830;28;20044;-76
2023/08/17 13:55:47;;;;;;;6.32;4.40;;;;;;;;;;10516878;28;20055;-76
2023/08/17 14:00:52;;;;;;;6.68;5.22;;;;;;;;;;10491494;28;20044;-75
2023/08/17 14:05:58;;;;;;;9.90;5.38;;;;;;;;;;10513742;28;20187;-75
2023/08/17 14:11:02;;;;;;;7.20;5.15;;;;;;;;;;10518528;28;20039;-75
2023/08/17 14:16:12;;;;;;;8.65;6.20;;;;;;;;;;10509667;28;20115;-74
2023/08/17 14:21:21;;;;;;;10.40;6.82;;;;;;;;;;10507104;28;20119;-76
2023/08/17 14:26:35;;;;;;;8.07;6.47;;;;;;;;;;10513526;28;20105;-75
2023/08/17 14:31:43;;;;;;;9.43;6.70;;;;;;;;;;10497687;28;20044;-75
2023/08/17 14:37:16;;;;;;;7.88;6.15;;;;;;;;;;10494044;28;20046;-76
2023/08/17 14:42:20;;;;;;;7.65;5.80;;;;;;;;;;10523393;28;20110;-75
2023/08/17 14:47:28;;;;;;;8.93;6.78;;;;;;;;;;10490744;28;20053;-75
2023/08/17 14:52:35;;;;;;;8.10;6.68;;;;;;;;;;10490036;28;20036;-75
2023/08/17 14:57:41;;;;;;;11.48;6.47;;;;;;;;;;10509136;28;20048;-76
2023/08/17 15:02:48;;;;;;;9.50;6.85;;;;;;;;;;10491780;28;20052;-76
2023/08/17 15:07:56;;;;;;;9.88;6.25;;;;;;;;;;10508678;28;20409;-76
2023/08/17 15:13:08;;;;;;;9.57;6.57;;;;;;;;;;10503417;28;20147;-75
2023/08/17 15:18:15;;;;;;;11.02;6.97;;;;;;;;;;10511172;28;20462;-75
2023/08/17 15:23:24;;;;;;;9.23;6.70;;;;;;;;;;10514153;28;20711;-76
2023/08/17 15:28:31;;;;;;;9.57;7.10;;;;;;;;;;10499667;28;20032;-75
2023/08/17 15:33:42;;;;;;;9.05;7.20;;;;;;;;;;10529030;28;20035;-75
2023/08/17 15:38:51;;;;;;;12.48;8.40;;;;;;;;;;10512966;28;20466;-76
2023/08/17 15:43:59;;;;;;;9.20;7.18;;;;;;;;;;10529219;28;20047;-75
2023/08/17 15:49:14;;;;;;;10.43;7.07;;;;;;;;;;10524277;28;20390;-75
2023/08/17 15:54:24;;;;;;;10.63;7.70;;;;;;;;;;10508845;28;20062;-76
2023/08/17 15:59:42;;;;;;;9.05;7.30;;;;;;;;;;10533013;28;20032;-76
2023/08/17 16:04:48;;;;;;;10.98;6.85;;;;;;;;;;10503175;28;20135;-74
2023/08/17 16:09:54;;;;;;;13.35;7.53;;;;;;;;;;10526685;28;20056;-75
2023/08/17 16:15:09;;;;;;;9.77;7.55;;;;;;;;;;10517987;28;20490;-75
2023/08/17 16:20:15;;;;;;;12.05;7.20;;;;;;;;;;10536602;28;20113;-76
2023/08/17 16:25:27;;;;;;;10.98;7.68;;;;;;;;;;10529980;28;20478;-76
2023/08/17 16:30:37;;;;;;;8.65;4.72;;;;;;;;;;10525440;28;20055;-76
2023/08/17 16:36:07;;;;;;;12.13;3.45;;;;;;;;;;10493118;28;20040;-86
2023/08/17 16:41:56;;;;;;;7.45;3.22;;;;;;;;;;10531965;28;20071;-87
2023/08/17 16:47:25;;;;;;;7.10;2.90;;;;;;;;;;10516450;28;20123;-86
2023/08/17 16:58:04;;;;;;;9.98;2.70;;;;;;;;;;10512333;28;20055;-86
2023/08/17 17:03:16;;;;;;;9.48;2.65;;;;;;;;;;10524330;28;20059;-85
2023/08/17 17:08:22;;;;;;;5.25;2.30;;;;;;;;;;10502787;28;20515;-84
2023/08/17 17:13:31;;;;;;;3.75;2.10;;;;;;;;;;10504161;28;20136;-87
2023/08/17 17:18:35;;;;;;;6.15;3.22;;;;;;;;;;10506370;28;20126;-84
2023/08/17 17:23:40;;;;;;;5.70;3.05;;;;;;;;;;10528565;28;20078;-84
2023/08/17 17:28:46;;;;;;;5.78;3.15;;;;;;;;;;10522457;28;20040;-83
2023/08/17 17:33:55;;;;;;;8.40;3.47;;;;;;;;;;10531038;28;20055;-81
2023/08/17 17:39:03;;;;;;;7.43;3.10;;;;;;;;;;10498840;28;20123;-90
2023/08/17 17:49:36;;;;;;;4.85;2.55;;;;;;;;;;10526624;28;20055;-90
2023/08/17 17:54:42;;;;;;;5.57;2.67;;;;;;;;;;10512075;28;20040;-89
2023/08/17 17:59:51;;;;;;;6.32;3.40;;;;;;;;;;10522194;28;20032;-91
2023/08/17 18:05:02;;;;;;;5.38;3.08;;;;;;;;;;10484768;28;20501;-80
2023/08/17 18:10:22;;;;;;;7.93;3.17;;;;;;;;;;10512181;28;20044;-80
2023/08/17 18:15:29;;;;;;;7.57;3.03;;;;;;;;;;10515105;28;20071;-80
2023/08/17 18:20:47;;;;;;;8.30;3.42;;;;;;;;;;10520860;28;20048;-80
2023/08/17 18:26:13;;;;;;;7.18;3.30;;;;;;;;;;10519858;28;20209;-80
2023/08/17 18:31:23;;;;;;;5.75;2.95;;;;;;;;;;10502319;28;20044;-80
2023/08/17 18:36:31;;;;;;;11.00;3.67;;;;;;;;;;10518965;28;20048;-80
2023/08/17 18:41:38;;;;;;;8.07;3.20;;;;;;;;;;10503074;28;20432;-86
2023/08/17 18:46:50;;;;;;;7.15;3.15;;;;;;;;;;10539368;28;20043;-88
2023/08/17 18:51:58;;;;;;;7.55;3.38;;;;;;;;;;10512650;28;20450;-86
2023/08/17 19:02:44;;;;;;;14.10;7.57;;;;;;;;;;10518322;28;20052;-85
2023/08/17 19:07:54;;;;;;;7.47;3.42;;;;;;;;;;10518553;28;20040;-85
2023/08/17 19:13:05;;;;;;;13.05;4.18;;;;;;;;;;10503699;28;20048;-85
2023/08/17 19:18:18;;;;;;;6.00;2.25;;;;;;;;;;10511998;28;20052;-81
2023/08/17 19:23:39;;;;;;;7.22;3.30;;;;;;;;;;10525424;28;20139;-83
2023/08/17 19:28:52;;;;;;;7.78;3.45;;;;;;;;;;10514145;28;20139;-81
2023/08/17 19:39:23;;;;;;;9.25;3.25;;;;;;;;;;10520618;28;20522;-86
2023/08/17 19:44:28;;;;;;;3.30;1.80;;;;;;;;;;10500586;28;20097;-85
2023/08/17 19:49:44;;;;;;;5.88;2.95;;;;;;;;;;10498651;28;20582;-87
2023/08/17 19:54:51;;;;;;;8.10;3.63;;;;;;;;;;10499257;28;20374;-86
2023/08/17 19:59:58;;;;;;;9.75;3.63;;;;;;;;;;10524968;28;20029;-88
2023/08/17 20:05:06;;;;;;;5.90;3.38;;;;;;;;;;10506834;28;20048;-87
2023/08/17 20:10:14;;;;;;;7.80;4.03;;;;;;;;;;10496517;28;20058;-87
2023/08/17 20:15:21;;;;;;;4.95;2.25;;;;;;;;;;10487488;28;20039;-86
2023/08/17 20:20:49;;;;;;;9.02;4.20;;;;;;;;;;10527651;28;20103;-88
2023/08/17 20:26:01;;;;;;;8.57;3.25;;;;;;;;;;10539482;28;20044;-86
2023/08/17 20:31:12;;;;;;;6.33;3.37;;;;;;;;;;10535876;28;20445;-85
2023/08/17 20:36:18;;;;;;;4.45;2.83;;;;;;;;;;10521066;28;20151;-86
2023/08/17 20:41:25;;;;;;;7.05;3.10;;;;;;;;;;10528304;28;20131;-87
2023/08/17 20:46:29;;;;;;;7.60;3.28;;;;;;;;;;10529473;28;20042;-87
2023/08/17 20:51:48;;;;;;;10.30;4.15;;;;;;;;;;10533259;28;20367;-87
2023/08/17 20:56:57;;;;;;;9.85;3.70;;;;;;;;;;10536042;28;20048;-87
2023/08/17 21:02:07;;;;;;;8.43;3.92;;;;;;;;;;10519337;28;20044;-86
2023/08/17 21:07:11;;;;;;;10.15;4.18;;;;;;;;;;10528313;28;20070;-86
2023/08/17 21:12:21;;;;;;;8.07;4.15;;;;;;;;;;10531888;28;20339;-86
2023/08/17 21:17:34;;;;;;;7.20;3.72;;;;;;;;;;10519425;28;20075;-87
2023/08/17 21:22:45;;;;;;;7.00;4.07;;;;;;;;;;10516673;28;20063;-87
2023/08/17 21:27:59;;;;;;;7.85;3.67;;;;;;;;;;10532702;28;20354;-86
2023/08/17 21:33:13;;;;;;;6.78;3.50;;;;;;;;;;10535871;28;20059;-81
2023/08/17 21:38:20;;;;;;;8.18;4.00;;;;;;;;;;10537112;28;20040;-81
2023/08/17 21:43:47;;;;;;;7.15;4.07;;;;;;;;;;10533434;28;20043;-82
2023/08/17 21:49:00;;;;;;;10.18;4.65;;;;;;;;;;10535292;28;20060;-84
2023/08/17 21:54:13;;;;;;;9.93;4.40;;;;;;;;;;10534568;28;20070;-83
2023/08/17 21:59:25;;;;;;;8.38;3.92;;;;;;;;;;10518647;28;20090;-83
2023/08/17 22:04:35;;;;;;;9.57;4.05;;;;;;;;;;10514430;28;20124;-83
2023/08/17 22:09:42;;;;;;;7.80;3.90;;;;;;;;;;10512346;28;20131;-82
2023/08/17 22:14:54;;;;;;;5.80;3.50;;;;;;;;;;10523506;28;20050;-82
2023/08/17 22:20:01;;;;;;;7.47;3.28;;;;;;;;;;10525782;28;20399;-84
2023/08/17 22:25:08;;;;;;;8.20;3.80;;;;;;;;;;10519068;28;20052;-83
2023/08/17 22:30:15;;;;;;;10.88;3.80;;;;;;;;;;10519635;28;20067;-83
2023/08/17 22:35:33;;;;;;;7.35;3.45;;;;;;;;;;10520236;28;20059;-83
2023/08/17 22:40:51;;;;;;;6.53;3.60;;;;;;;;;;10508718;28;20036;-83
2023/08/17 22:46:02;;;;;;;6.40;3.22;;;;;;;;;;10509908;28;20071;-83
2023/08/17 22:51:07;;;;;;;5.40;3.13;;;;;;;;;;10523412;28;20045;-83
2023/08/17 22:56:17;;;;;;;8.13;3.08;;;;;;;;;;10528347;28;20040;-83
2023/08/17 23:01:26;;;;;;;7.55;3.03;;;;;;;;;;10510119;28;20456;-83
2023/08/17 23:06:31;;;;;;;9.23;3.20;;;;;;;;;;10514078;28;20044;-84
2023/08/17 23:11:37;;;;;;;7.55;3.20;;;;;;;;;;10515539;28;20160;-84
2023/08/17 23:16:40;;;;;;;5.65;3.33;;;;;;;;;;10497936;28;20052;-83
2023/08/17 23:21:48;;;;;;;5.63;2.75;;;;;;;;;;10514263;28;20113;-85
2023/08/17 23:27:09;;;;;;;8.20;2.70;;;;;;;;;;10529209;28;20478;-81
2023/08/17 23:37:43;;;;;;;3.00;1.88;;;;;;;;;;10516358;28;20063;-83
2023/08/17 23:42:50;;;;;;;6.93;2.90;;;;;;;;;;10515726;28;20048;-82
2023/08/17 23:47:54;;;;;;;5.47;3.08;;;;;;;;;;10485194;28;20051;-81
2023/08/17 23:53:00;;;;;;;5.65;2.63;;;;;;;;;;10525554;28;20059;-80
2023/08/17 23:58:27;;;;;;;5.53;2.53;;;;;;;;;;10522524;28;20052;-81
